createdAt,value
2019-03-12T00:03:37.183Z,90.75
2019-03-12T00:07:39.150Z,90.60
2019-03-12T00:11:41.066Z,90.19
2019-03-12T00:15:43.046Z,90.04
2019-03-12T00:19:44.949Z,89.84
2019-03-12T00:23:46.843Z,89.89
2019-03-12T00:27:48.807Z,89.66
2019-03-12T00:31:51.678Z,89.61
2019-03-12T00:35:53.583Z,89.26
2019-03-12T00:39:55.487Z,89.56
2019-03-12T00:43:57.395Z,89.22
2019-03-12T00:47:59.271Z,89.21
2019-03-12T00:52:01.699Z,88.90
2019-03-12T00:56:03.600Z,89.06
2019-03-12T01:00:18.400Z,89.39
2019-03-12T01:04:20.297Z,89.38
2019-03-12T01:08:22.197Z,89.26
2019-03-12T01:12:24.081Z,89.55
2019-03-12T01:16:25.987Z,89.58
2019-03-12T01:20:27.887Z,89.52
2019-03-12T01:24:29.785Z,89.33
2019-03-12T01:28:31.748Z,89.20
2019-03-12T01:32:33.721Z,89.11
2019-03-12T01:36:35.615Z,88.98
2019-03-12T01:40:37.514Z,89.17
2019-03-12T01:44:39.415Z,88.96
2019-03-12T01:48:41.313Z,88.57
2019-03-12T01:52:43.277Z,88.19
2019-03-12T01:56:45.263Z,87.80
2019-03-12T02:00:47.165Z,87.82
2019-03-12T02:04:49.069Z,86.97
2019-03-12T02:08:51.009Z,87.22
2019-03-12T02:12:52.900Z,87.38
2019-03-12T02:16:54.871Z,87.49
2019-03-12T02:20:56.780Z,87.22
2019-03-12T02:24:58.679Z,87.50
2019-03-12T02:29:00.631Z,86.76
2019-03-12T02:33:02.549Z,87.19
2019-03-12T02:37:05.513Z,86.69
2019-03-12T02:41:07.415Z,86.17
2019-03-12T02:45:16.931Z,86.82
2019-03-12T02:49:19.077Z,86.95
2019-03-12T02:53:20.972Z,86.23
2019-03-12T02:57:22.885Z,86.14
2019-03-12T03:01:24.795Z,86.52
2019-03-12T03:05:26.825Z,87.50
2019-03-12T03:09:28.715Z,88.00
2019-03-12T03:13:31.906Z,87.97
2019-03-12T03:17:33.832Z,88.21
2019-03-12T03:21:35.719Z,88.06
2019-03-12T03:25:37.624Z,88.38
2019-03-12T03:29:39.572Z,88.55
2019-03-12T03:33:41.497Z,88.08
2019-03-12T03:37:43.361Z,88.18
2019-03-12T03:41:45.257Z,88.19
2019-03-12T03:45:47.152Z,88.37
2019-03-12T03:49:49.054Z,88.08
2019-03-12T03:53:50.993Z,88.05
2019-03-12T03:57:52.885Z,88.00
2019-03-12T04:01:54.793Z,87.92
2019-03-12T04:05:56.706Z,88.16
2019-03-12T04:09:58.610Z,88.19
2019-03-12T04:14:00.509Z,88.39
2019-03-12T04:18:02.415Z,88.20
2019-03-12T04:22:04.455Z,88.48
2019-03-12T04:26:06.356Z,88.58
2019-03-12T04:30:16.957Z,88.35
2019-03-12T04:34:18.922Z,88.21
2019-03-12T04:38:20.819Z,88.57
2019-03-12T04:42:22.723Z,88.70
2019-03-12T04:46:24.638Z,88.73
2019-03-12T04:50:26.533Z,88.71
2019-03-12T04:54:28.481Z,88.58
2019-03-12T04:58:30.385Z,88.48
2019-03-12T05:02:32.294Z,88.07
2019-03-12T05:06:34.210Z,88.64
2019-03-12T05:10:37.100Z,88.72
2019-03-12T05:14:39.189Z,88.24
2019-03-12T05:18:41.274Z,88.17
2019-03-12T05:22:43.164Z,88.45
2019-03-12T05:26:45.074Z,88.53
2019-03-12T05:30:46.972Z,88.67
2019-03-12T05:34:49.161Z,88.08
2019-03-12T05:38:51.065Z,87.68
2019-03-12T05:42:52.971Z,88.00
2019-03-12T05:46:54.880Z,87.52
2019-03-12T05:50:56.820Z,87.38
2019-03-12T05:54:58.824Z,87.86
2019-03-12T05:59:00.732Z,87.81
2019-03-12T06:03:02.639Z,87.71
2019-03-12T06:07:18.875Z,88.07
2019-03-12T06:11:20.773Z,87.52
2019-03-12T06:15:22.692Z,87.65
2019-03-12T06:19:24.601Z,87.42
2019-03-12T06:23:26.514Z,87.14
2019-03-12T06:27:28.417Z,87.33
2019-03-12T06:31:34.963Z,87.23
2019-03-12T06:35:54.777Z,86.26
2019-03-12T06:40:01.544Z,86.18
2019-03-12T06:44:05.090Z,86.14
2019-03-12T06:48:14.375Z,85.90
2019-03-12T06:52:28.257Z,86.04
2019-03-12T06:56:29.932Z,85.65
2019-03-12T07:00:45.080Z,85.20
2019-03-12T07:04:51.541Z,85.88
2019-03-12T07:08:57.837Z,85.66
2019-03-12T07:13:01.468Z,85.61
2019-03-12T07:17:07.957Z,85.61
2019-03-12T07:21:11.480Z,84.40
2019-03-12T07:25:20.255Z,85.21
2019-03-12T07:29:41.926Z,85.55
2019-03-12T07:33:45.466Z,85.01
2019-03-12T07:37:57.835Z,85.44
2019-03-12T07:41:59.464Z,84.99
2019-03-12T07:46:15.132Z,83.59
2019-03-12T07:50:24.398Z,84.00
2019-03-12T07:54:30.365Z,83.65
2019-03-12T07:58:40.117Z,83.30
2019-03-12T08:02:55.630Z,83.32
2019-03-12T08:07:04.700Z,83.51
2019-03-12T08:11:08.242Z,81.66
2019-03-12T08:15:30.787Z,79.08
2019-03-12T08:19:37.015Z,77.51
2019-03-12T08:23:49.309Z,78.38
2019-03-12T08:27:59.653Z,77.97
2019-03-12T08:32:06.048Z,78.56
2019-03-12T08:36:07.723Z,75.89
2019-03-12T08:40:10.338Z,72.99
2019-03-12T08:44:30.024Z,67.71
2019-03-12T08:48:33.674Z,69.20
2019-03-12T08:52:39.666Z,69.19
2019-03-12T08:56:43.216Z,68.04
2019-03-12T09:00:52.952Z,65.68
2019-03-12T09:05:12.810Z,68.28
2019-03-12T09:09:19.137Z,65.94
2019-03-12T09:13:20.804Z,65.53
2019-03-12T09:17:27.059Z,67.30
2019-03-12T09:21:34.454Z,65.46
2019-03-12T09:25:37.991Z,66.41
2019-03-12T09:29:39.671Z,66.08
2019-03-12T09:33:59.460Z,65.29
2019-03-12T09:38:06.067Z,63.99
2019-03-12T09:42:18.859Z,65.15
2019-03-12T09:46:25.196Z,64.97
2019-03-12T09:50:28.742Z,66.50
2019-03-12T09:54:39.313Z,63.33
2019-03-12T09:58:48.595Z,63.73
2019-03-12T10:02:52.151Z,63.06
2019-03-12T10:07:01.589Z,62.90
2019-03-12T10:11:07.713Z,62.69
2019-03-12T10:15:27.178Z,61.40
2019-03-12T10:19:42.603Z,63.04
2019-03-12T10:23:52.103Z,60.55
2019-03-12T10:27:56.705Z,59.13
2019-03-12T10:32:00.263Z,60.28
2019-03-12T10:36:20.264Z,59.16
2019-03-12T10:40:35.875Z,59.42
2019-03-12T10:44:39.423Z,58.33
2019-03-12T10:48:41.500Z,56.24
2019-03-12T10:52:43.419Z,54.92
2019-03-12T10:56:45.313Z,55.27
2019-03-12T11:00:47.285Z,54.65
2019-03-12T11:04:49.193Z,54.78
2019-03-12T11:08:51.099Z,52.73
2019-03-12T11:12:53.000Z,54.95
2019-03-12T11:16:54.919Z,53.77
2019-03-12T11:20:58.715Z,52.85
2019-03-12T11:25:00.406Z,51.39
2019-03-12T11:29:02.304Z,51.56
2019-03-12T11:33:04.260Z,51.74
2019-03-12T11:37:06.182Z,51.76
2019-03-12T11:41:08.149Z,49.27
2019-03-12T11:45:17.075Z,48.93
2019-03-12T11:49:16.483Z,49.41
2019-03-12T11:53:18.369Z,48.88
2019-03-12T11:57:20.344Z,48.33
2019-03-12T12:01:22.344Z,48.51
2019-03-12T12:05:24.229Z,49.72
2019-03-12T12:09:26.129Z,47.14
2019-03-12T12:13:28.044Z,45.24
2019-03-12T12:17:29.942Z,45.33
2019-03-12T12:21:32.218Z,44.72
2019-03-12T12:25:34.200Z,44.58
2019-03-12T12:29:36.114Z,46.59
2019-03-12T12:33:37.995Z,45.81
2019-03-12T12:37:40.033Z,46.59
2019-03-12T12:41:41.936Z,44.66
2019-03-12T12:45:44.998Z,43.69
2019-03-12T12:49:46.948Z,42.98
2019-03-12T12:53:48.842Z,42.89
2019-03-12T12:57:50.744Z,43.38
2019-03-12T13:01:52.652Z,42.06
2019-03-12T13:05:55.781Z,42.56
2019-03-12T13:09:57.839Z,40.97
2019-03-12T13:13:59.744Z,40.09
2019-03-12T13:18:01.666Z,40.58
2019-03-12T13:22:03.599Z,41.94
2019-03-12T13:26:05.498Z,41.53
2019-03-12T13:30:16.954Z,41.33
2019-03-12T13:34:18.849Z,41.13
2019-03-12T13:38:20.765Z,39.35
2019-03-12T13:42:22.848Z,38.62
2019-03-12T13:46:24.757Z,38.06
2019-03-12T13:50:27.126Z,37.91
2019-03-12T13:54:29.978Z,38.88
2019-03-12T13:58:32.292Z,37.24
2019-03-12T14:02:34.214Z,37.84
2019-03-12T14:06:37.591Z,37.23
2019-03-12T14:10:39.732Z,36.07
2019-03-12T14:14:41.912Z,36.07
2019-03-12T14:18:43.829Z,37.18
2019-03-12T14:22:45.748Z,36.33
2019-03-12T14:26:47.665Z,36.45
2019-03-12T14:30:49.719Z,36.18
2019-03-12T14:34:51.622Z,37.82
2019-03-12T14:38:53.616Z,38.25
2019-03-12T14:42:55.524Z,37.49
2019-03-12T14:46:57.441Z,35.70
2019-03-12T14:50:59.350Z,34.37
2019-03-12T14:55:01.259Z,34.95
2019-03-12T14:59:03.710Z,37.33
2019-03-12T15:03:05.775Z,37.22
2019-03-12T15:07:07.711Z,38.25
2019-03-12T15:11:09.603Z,37.86
2019-03-12T15:15:13.513Z,38.69
2019-03-12T15:19:15.669Z,38.92
2019-03-12T15:23:17.935Z,37.76
2019-03-12T15:27:19.835Z,38.90
2019-03-12T15:31:21.736Z,37.89
2019-03-12T15:35:23.633Z,38.32
2019-03-12T15:39:25.524Z,40.61
2019-03-12T15:43:27.431Z,39.19
2019-03-12T15:47:29.339Z,39.10
2019-03-12T15:51:32.481Z,40.25
2019-03-12T15:55:34.365Z,40.38
2019-03-12T15:59:36.283Z,41.11
2019-03-12T16:03:38.197Z,41.77
2019-03-12T16:07:40.111Z,42.82
2019-03-12T16:11:42.016Z,41.97
2019-03-12T16:15:43.903Z,42.80
2019-03-12T16:19:45.839Z,43.53
2019-03-12T16:23:47.699Z,45.65
2019-03-12T16:27:49.598Z,44.75
2019-03-12T16:31:52.685Z,46.25
2019-03-12T16:35:54.570Z,46.83
2019-03-12T16:39:56.789Z,47.64
2019-03-12T16:43:59.651Z,47.52
2019-03-12T16:48:01.758Z,48.66
2019-03-12T16:52:04.611Z,48.88
2019-03-12T16:56:06.583Z,50.85
2019-03-12T17:00:15.285Z,50.74
2019-03-12T17:04:17.195Z,51.61
2019-03-12T17:08:19.178Z,51.16
2019-03-12T17:12:21.073Z,50.75
2019-03-12T17:16:22.956Z,52.30
2019-03-12T17:20:25.135Z,52.72
2019-03-12T17:24:27.011Z,52.95
2019-03-12T17:28:28.932Z,53.69
2019-03-12T17:32:30.842Z,51.99
2019-03-12T17:36:32.727Z,51.53
2019-03-12T17:40:34.633Z,52.63
2019-03-12T17:44:36.531Z,54.33
2019-03-12T17:48:38.434Z,55.21
2019-03-12T17:52:40.344Z,55.82
2019-03-12T17:56:42.229Z,54.92
2019-03-12T18:00:45.416Z,56.89
2019-03-12T18:04:47.317Z,58.29
2019-03-12T18:08:49.219Z,58.38
2019-03-12T18:12:51.112Z,58.43
2019-03-12T18:16:53.010Z,60.15
2019-03-12T18:20:54.982Z,57.39
2019-03-12T18:24:56.882Z,57.39
2019-03-12T18:28:59.401Z,59.39
2019-03-12T18:33:01.356Z,60.37
2019-03-12T18:37:10.578Z,56.13
2019-03-12T18:41:15.236Z,55.84
2019-03-12T18:45:23.413Z,56.06
2019-03-12T18:49:25.305Z,55.17
2019-03-12T18:53:27.207Z,53.99
2019-03-12T18:57:29.112Z,55.21
2019-03-12T19:01:32.481Z,53.10
2019-03-12T19:05:34.398Z,52.88
2019-03-12T19:09:36.304Z,52.96
2019-03-12T19:13:38.283Z,51.50
2019-03-12T19:17:41.209Z,51.36
2019-03-12T19:21:43.193Z,51.13
2019-03-12T19:25:48.247Z,50.46
2019-03-12T19:29:50.152Z,50.04
2019-03-12T19:33:53.428Z,50.83
2019-03-12T19:37:57.415Z,51.27
2019-03-12T19:41:59.326Z,50.43
2019-03-12T19:46:01.209Z,50.91
2019-03-12T19:50:06.165Z,50.75
2019-03-12T19:54:08.057Z,51.02
2019-03-12T19:58:10.248Z,52.53
2019-03-12T20:02:16.434Z,51.08
2019-03-12T20:06:15.729Z,52.49
2019-03-12T20:10:57.395Z,52.74
2019-03-12T20:15:21.318Z,53.91
2019-03-12T20:19:56.593Z,52.97
2019-03-12T20:24:55.227Z,53.62
2019-03-12T20:29:21.438Z,53.77
2019-03-12T20:33:39.702Z,54.60
2019-03-12T20:38:25.682Z,54.79
2019-03-12T20:42:57.764Z,55.43
2019-03-12T20:47:38.708Z,55.54
2019-03-12T20:52:18.822Z,55.22
2019-03-12T20:56:51.921Z,55.46
2019-03-12T21:01:23.184Z,55.23
2019-03-12T21:06:16.677Z,55.85
2019-03-12T21:11:00.688Z,55.95
2019-03-12T21:15:34.248Z,57.79
2019-03-12T21:20:13.681Z,55.99
2019-03-12T21:24:42.430Z,56.61
2019-03-12T21:29:23.362Z,55.64
2019-03-12T21:33:25.260Z,56.36
2019-03-12T21:37:27.160Z,55.42
2019-03-12T21:41:29.116Z,55.04
2019-03-12T21:45:31.008Z,55.19
2019-03-12T21:49:33.256Z,56.34
2019-03-12T21:53:35.148Z,53.76
2019-03-12T21:57:37.063Z,53.93
2019-03-12T22:01:38.958Z,54.31
2019-03-12T22:05:40.958Z,55.82
2019-03-12T22:09:42.861Z,53.96
2019-03-12T22:13:44.767Z,53.50
2019-03-12T22:17:47.501Z,53.53
2019-03-12T22:21:54.070Z,53.57
2019-03-12T22:25:56.198Z,54.43
2019-03-12T22:29:58.044Z,54.58
2019-03-12T22:33:59.943Z,55.08
2019-03-12T22:38:01.865Z,55.42
2019-03-12T22:42:03.933Z,55.97
2019-03-12T22:46:05.889Z,55.86
2019-03-12T22:50:18.274Z,54.58
2019-03-12T22:58:47.241Z,55.93
2019-03-12T23:03:07.418Z,56.55
2019-03-12T23:07:27.068Z,57.05
2019-03-12T23:11:30.564Z,59.15
2019-03-12T23:15:32.871Z,58.49
2019-03-12T23:19:34.846Z,59.71
2019-03-12T23:23:36.753Z,60.42
2019-03-12T23:27:38.648Z,60.23
2019-03-12T23:31:40.634Z,60.71
2019-03-12T23:35:42.537Z,61.04
2019-03-12T23:39:44.473Z,61.18
2019-03-12T23:43:46.424Z,62.07
2019-03-12T23:47:50.334Z,63.47
2019-03-12T23:51:51.996Z,64.00
2019-03-12T23:55:54.125Z,61.72
2019-03-12T23:59:56.143Z,63.93
